Craig, AK

3:37 PM AKDT on July 25, 2017 (GMT -0800)
Port St. Nicholas | | Change Station

Elev 0 ft 55.45 °N, 133.06 °W | Updated 49 seconds ago

Overcast
Overcast
58.5 °F
Feels Like 58.5 °F
N
0.0
Wind Variable Wind from East
Gusts 0.0 mph

Today
High -- | Low -- °F
--% Chance of Precip.
Yesterday
High -- | Low -- °F
Precip. -- in
Pressure 30.00 in
Visibility 7.0 miles
Clouds Few 2400 ft
Mostly Cloudy 3500 ft
Overcast 4200 ft
Dew Point 58 °F
Humidity 99%
Rainfall 0.00 in
Snow Depth Not available.
4:47 AM 9:08 PM
Waxing Crescent, 9% visible
SPECI PAKW 252321Z AUTO 00000KT 7SM -RA FEW024 BKN035 OVC042 16/12 A3000 RMK AO2 P0001 T01560122 TSNO
Pressure 30.00 in
Visibility 7.0 miles
Clouds Few 2400 ft
Mostly Cloudy 3500 ft
Overcast 4200 ft
Dew Point 58 °F
Humidity 99%
Rainfall 0.00 in
Snow Depth Not available.
4:47 AM 9:08 PM
Waxing Crescent, 9% visible
SPECI PAKW 252321Z AUTO 00000KT 7SM -RA FEW024 BKN035 OVC042 16/12 A3000 RMK AO2 P0001 T01560122 TSNO

Get Severe Weather Alerts

Thanks for signing up!

Be on the lookout for a verification email in your inbox.

You'll start receiving the daily forecast at 6 AM.

×

10-Day Weather Forecast

Almanac

Astronomy

Jul. 25, 2017 Rise Set
Actual Time
Civil Twilight
Nautical Twilight
Astronomical Twilight
Moon
Length of Visible Light
Length of Day
Tomorrow will be .
, % of the Moon is Illuminated

Today's Extremes

State Highs State Lows

Community

WunderPhotos

Category 6

Welcome to Category 6. This is the collective home for Weather Underground's featured writeups by Dr. Jeff Masters (right), Bob Henson (left), Chris Burt, and other regular contributors.

Nearby

Air Quality

  Air Quality AQ Index Pollutant
Not available.

Snow Depth

Station Depth Elevation

Earthquake Activity

City Distance Mag. Time & Date
Minimum magnitude displayed is 2.5.

Coastal Water Temperatures

Place Temperature

Stations

Nearby Weather Stations

Station Location Temp. Windchill Dew Point Humidity Wind Precip. Elev Updated Type
                   

Watches & Warnings

There are currently no watches in effect.